Terminal Aerodrome Forecast
Issued by NWS

Home | Current Version | Previous Version | Text Only | Print | Product List | Glossary On
Versions: 1 2 3 4 5 6 7 8 9 10 11 12 13 14 15 16 17 18 19 20 21
263
FTUS41 KBGM 220836 AAA
TAFRME
TAF AMD
KRME 220836Z 2209/2306 09004KT 6SM BR OVC015
      TEMPO 2209/2211 OVC060
     FM221700 11005KT P6SM OVC015
     FM230500 10011G19KT P6SM OVC020=

USA.gov is the U.S. government's official web portal to all federal, state and local government web resources and services.